Terminal Aerodrome Forecast
Issued by NWS

Home | Current Version | Previous Version | Text Only | Print | Product List | Glossary On
Versions: 1 2 3 4 5 6 7 8 9 10 11 12
000
FTAK31 PAJN 192300
TAFAKT
TAF
PAKT 192320Z 2000/2024 15010KT P6SM -RA SCT012 BKN020 OVC030
     FM200900 14012G22KT 5SM -RA BR BKN015 OVC025 WS020/16030KT
     FM201500 15015G25KT 4SM RA BR BKN007 OVC015 WS020/17030KT
     FM202200 28012G22KT 5SM -RA BR SCT007 OVC015
      AMD LTD TO CLD VIS AND WIND 2006/2015=

USA.gov is the U.S. government's official web portal to all federal, state and local government web resources and services.